Terminal Aerodrome Forecast
Issued by NWS Northern Indiana

Home | Current Version | Previous Version | Graphics & Text | Print | Product List | Glossary On
Versions: 1 2 3 4 5 6 7 8 9 10
000
FTUS43 KIWX 242100 AAA
TAFFWA
TAF AMD
KFWA 242158Z 2422/2518 27015G22KT P6SM -RA OVC008
     FM250200 25015KT P6SM OVC012
     FM251400 24012KT P6SM OVC015=

USA.gov is the U.S. government's official web portal to all federal, state and local government web resources and services.